Nearby METAR Reports

 

KMTN - Baltimore/Martin, Maryland, USA
Distance from station: SSE 8mi, 13km
Updated: Thu, 21-Aug-2014 5:55pm EDT
Overcast
Overcast
 Wind from ESE
Wind: ESE 5 mph , 7 km/h
Temperature: 82°F , 28°C
Heat Index: 89°F , 32°C
Dew Point: 75°F , 24°C
Humidity: 79%
Barometer: 30.00 inHg , 1015.9 hPa
Clouds: Overcast
Visibility: 10 miles , 16 km
Cloud details: Mostly cloudy 4000 ft
Overcast 12000 ft
2014/08/21 21:55 KMTN 212155Z 12004KT 10SM BKN040 OVC120 28/24 A3000
KDMH - Baltimore/Dwntwn, Maryland, USA
Distance from station: SW 12mi, 19km
Updated: Thu, 21-Aug-2014 5:54pm EDT

 
Temperature: 82°F , 28°C
Heat Index: 87°F , 31°C
Dew Point: 73°F , 23°C
Humidity: 74%
Barometer: 29.98 inHg , 1015.2 hPa
2014/08/21 21:54 KDMH 212154Z AUTO 28/23 A2998 RMK AO1 SLP152 T02780228
 
KBWI - Balto/Wash Intl, Maryland, USA
Distance from station: SSW 20mi, 33km
Updated: Thu, 21-Aug-2014 5:54pm EDT
Overcast
Overcast
 Wind from SSE
Wind: SSE 5 mph , 7 km/h
Temperature: 82°F , 28°C
Heat Index: 87°F , 31°C
Dew Point: 73°F , 23°C
Humidity: 74%
Barometer: 29.98 inHg , 1015.2 hPa
Clouds: Overcast
Visibility: 10 miles , 16 km
Cloud details: Few Clouds 4700 ft
Mostly cloudy 12000 ft
Mostly cloudy 16000 ft
Overcast 25000 ft
2014/08/21 21:54 KBWI 212154Z 16004KT 10SM FEW047 BKN120 BKN160 OVC250 28/23 A2998 RMK AO2 SLP149 CB DSNT NE MOV SE CB DSNT SW MOV SE TCU DSNT N T02780228
KDMW - Carroll Cnty, Maryland, USA
Distance from station: WNW 30mi, 48km
Updated: Thu, 21-Aug-2014 5:35pm EDT
Light drizzle, Partly cloudy
Light drizzle, Partly cloudy
 Wind from calm
Wind: Calm
Temperature: 79°F , 26°C
Dew Point: 73°F , 23°C
Humidity: 84%
Barometer: 30.01 inHg , 1016.3 hPa
Summary: Light Drizzle
Clouds: Partly cloudy
Visibility: 10 miles , 16 km
Cloud details: Partly cloudy 10000 ft
2014/08/21 21:35 KDMW 212135Z AUTO 00000KT 10SM -DZ SCT100 26/23 A3001 RMK AO2 LTG DSNT E
 
KNAK - Annapolis/Naval, Maryland, USA
Distance from station: S 30mi, 48km
Updated: Thu, 21-Aug-2014 5:54pm EDT
Partly cloudy
Partly cloudy
 Wind from S
Wind: S 5 mph , 7 km/h
Temperature: 81°F , 27°C
Heat Index: 85°F , 29°C
Dew Point: 72°F , 22°C
Humidity: 74%
Barometer: 29.98 inHg , 1015.2 hPa
Clouds: Partly cloudy
Visibility: 10 miles , 16 km
Cloud details: Partly cloudy 12000 ft
2014/08/21 21:54 KNAK 212154Z AUTO 17004KT 10SM SCT120 27/22 A2998 RMK AO2 SLP155 T02720217
KW29 - Stevensville, Maryland, USA
Distance from station: SSE 31mi, 50km
Updated: Thu, 21-Aug-2014 5:37pm EDT

 Wind from SSE
Wind: SSE 3 mph , 6 km/h
Temperature: 82°F , 28°C
Heat Index: 85°F , 29°C
Dew Point: 68°F , 20°C
Humidity: 62%
Barometer: 29.99 inHg , 1015.6 hPa
Visibility: 10 miles , 16 km
2014/08/21 21:37 KW29 212137Z AUTO 16003KT 10SM 28/20 A2999 RMK AO1
 
KCGS - College Park, Maryland, USA
Distance from station: SW 38mi, 61km
Updated: Thu, 21-Aug-2014 5:35pm EDT
Partly cloudy
Partly cloudy
 Wind from calm
Wind: Calm
Temperature: 82°F , 28°C
Heat Index: 86°F , 30°C
Dew Point: 70°F , 21°C
Humidity: 66%
Barometer: 29.99 inHg , 1015.6 hPa
Clouds: Partly cloudy
Visibility: 10 miles , 16 km
Cloud details: Partly cloudy 12000 ft
2014/08/21 21:35 KCGS 212135Z AUTO 00000KT 10SM SCT120 28/21 A2999 RMK AO1
KGAI - Gaithersburg, Maryland, USA
Distance from station: WSW 40mi, 65km
Updated: Thu, 21-Aug-2014 5:55pm EDT
Mostly cloudy
Mostly cloudy
 Wind from WSW
Wind: WSW 3 mph , 6 km/h
Temperature: 79°F , 26°C
Dew Point: 70°F , 21°C
Humidity: 74%
Barometer: 30.05 inHg , 1017.6 hPa
Clouds: Mostly cloudy
Visibility: 7 miles , 11 km
Cloud details: Few Clouds 3300 ft
Partly cloudy 6000 ft
Mostly cloudy 8000 ft
2014/08/21 21:55 KGAI 212155Z AUTO 25003KT 7SM FEW033 SCT060 BKN080 26/21 A3005 RMK AO1 LTG DSNT S
 
KTHV - York, Pennsylvania, USA
Distance from station: NNW 40mi, 65km
Updated: Thu, 21-Aug-2014 5:53pm EDT
Mostly cloudy
Mostly cloudy
 Wind from calm
Wind: Calm
Temperature: 79°F , 26°C
Dew Point: 70°F , 21°C
Humidity: 74%
Barometer: 29.98 inHg , 1015.2 hPa
Clouds: Mostly cloudy
Visibility: 10 miles , 16 km
Cloud details: Mostly cloudy 4900 ft
Mostly cloudy 8500 ft
2014/08/21 21:53 KTHV 212153Z AUTO 00000KT 10SM BKN049 BKN085 26/21 A2998 RMK AO2 LTG DSNT SE AND NW SLP151 T02610211
KFDK - Frederick, Maryland, USA
Distance from station: W 47mi, 75km
Updated: Thu, 21-Aug-2014 5:45pm EDT
Partly cloudy
Partly cloudy
 Wind from SSW
Wind: SSW 6 mph , 9 km/h
Temperature: 81°F , 27°C
Heat Index: 85°F , 29°C
Dew Point: 72°F , 22°C
Humidity: 74%
Barometer: 30.02 inHg , 1016.6 hPa
Clouds: Partly cloudy
Visibility: 10 miles , 16 km
Cloud details: Partly cloudy 5000 ft
Partly cloudy 10000 ft
2014/08/21 21:45 KFDK 212145Z 20005KT 10SM SCT050 SCT100 27/22 A3002
 
KESN - Easton/Newnam, Maryland, USA
Distance from station: SSE 48mi, 78km
Updated: Thu, 21-Aug-2014 5:50pm EDT
Clear
Clear
 Wind from calm
Wind: Calm
Temperature: 86°F , 30°C
Heat Index: 92°F , 33°C
Dew Point: 72°F , 22°C
Humidity: 62%
Barometer: 30.02 inHg , 1016.6 hPa
Clouds: Clear
Visibility: 10 miles , 16 km
2014/08/21 21:50 KESN 212150Z 00000KT 10SM SKC 30/22 A3002
KDCA - Washington/Natl, Washington D.c., USA
Distance from station: SW 49mi, 79km
Updated: Thu, 21-Aug-2014 5:52pm EDT
Light rain, Overcast
Light rain, Overcast
 Wind from WSW
Wind: WSW 10 mph , 17 km/h
Temperature: 81°F , 27°C
Heat Index: 85°F , 29°C
Dew Point: 72°F , 22°C
Humidity: 74%
Barometer: 30.00 inHg , 1015.9 hPa
Summary: Light rain
Clouds: Overcast
Visibility: 10 miles , 16 km
Cloud details: Few Clouds 5000 ft
Partly cloudy 9000 ft
Overcast 11000 ft
2014/08/21 21:52 KDCA 212152Z 25009KT 10SM -RA FEW050 SCT090 OVC110 27/22 A3000 RMK AO2 SLP159 P0000 T02720217
 
KLNS - Lancaster, Pennsylvania, USA
Distance from station: N 49mi, 79km
Updated: Thu, 21-Aug-2014 5:53pm EDT
Light rain, Partly cloudy
Light rain, Partly cloudy
 Wind from S
Wind: S 6 mph , 9 km/h
Temperature: 79°F , 26°C
Dew Point: 70°F , 21°C
Humidity: 74%
Barometer: 29.99 inHg , 1015.6 hPa
Summary: Light rain
Clouds: Partly cloudy
Visibility: 10 miles , 16 km
Cloud details: Partly cloudy 4900 ft
Partly cloudy 12000 ft
2014/08/21 21:53 KLNS 212153Z 19005KT 10SM -RA SCT049 SCT120 26/21 A2999 RMK AO2 LTG DSNT S RAB49 SLP152 P0000 T02610211
KILG - Wilmington, Delaware, USA
Distance from station: ENE 50mi, 81km
Updated: Thu, 21-Aug-2014 5:51pm EDT
Clear
Clear
 Wind from S
Wind: S 14 mph , 22 km/h
Temperature: 79°F , 26°C
Dew Point: 72°F , 22°C
Humidity: 79%
Barometer: 30.00 inHg , 1015.9 hPa
Clouds: Clear
Visibility: 10 miles , 16 km
2014/08/21 21:51 KILG 212151Z 17012KT 10SM CLR 26/22 A3000 RMK AO2 LTG DSNT W SLP160 T02560217